createdAt,value
2023-10-10T05:29:57.926Z,15.10
2023-10-10T05:32:24.416Z,12.70
2023-10-10T05:34:50.806Z,10.70
2023-10-10T05:37:17.237Z,10.77
2023-10-10T05:39:43.562Z,14.05
2023-10-10T05:42:09.933Z,13.18
2023-10-10T05:44:36.457Z,15.27
2023-10-10T05:47:02.851Z,10.63
2023-10-10T05:49:31.775Z,10.73
2023-10-10T05:51:58.575Z,10.77
2023-10-10T05:54:25.097Z,11.82
2023-10-10T05:56:51.430Z,8.95
2023-10-10T05:59:17.794Z,11.50
2023-10-10T06:01:44.187Z,10.05
2023-10-10T06:04:10.561Z,9.95
2023-10-10T06:06:37.912Z,11.05
2023-10-10T06:09:05.215Z,11.73
2023-10-10T06:11:31.677Z,10.25
2023-10-10T06:13:58.129Z,10.63
2023-10-10T06:16:24.532Z,12.13
2023-10-10T06:18:50.907Z,9.18
2023-10-10T06:21:17.629Z,12.07
2023-10-10T06:23:44.620Z,13.07
2023-10-10T06:26:11.688Z,12.80
2023-10-10T06:28:38.173Z,12.48
2023-10-10T06:31:04.936Z,10.93
2023-10-10T06:33:31.363Z,13.65
2023-10-10T06:36:08.299Z,11.32
2023-10-10T06:38:34.742Z,12.35
2023-10-10T06:41:01.112Z,12.43
2023-10-10T06:43:27.502Z,11.82
2023-10-10T06:45:53.975Z,13.07
2023-10-10T06:48:20.417Z,10.55
2023-10-10T06:50:46.829Z,13.65
2023-10-10T06:53:13.325Z,12.25
2023-10-10T06:55:39.671Z,9.77
2023-10-10T06:58:06.142Z,12.38
2023-10-10T07:00:33.151Z,11.20
2023-10-10T07:03:00.136Z,8.20
2023-10-10T07:05:26.802Z,11.27
2023-10-10T07:07:53.975Z,10.82
2023-10-10T07:10:20.304Z,11.52
2023-10-10T07:12:46.624Z,10.63
2023-10-10T07:15:13.097Z,12.43
2023-10-10T07:17:39.544Z,12.00
2023-10-10T07:20:06.433Z,14.88
2023-10-10T07:22:34.575Z,13.73
2023-10-10T07:25:04.958Z,14.65
2023-10-10T07:27:31.506Z,13.38
2023-10-10T07:29:58.770Z,9.50
2023-10-10T07:34:51.596Z,12.00
2023-10-10T07:37:21.435Z,11.32
2023-10-10T07:39:47.775Z,10.75
2023-10-10T07:42:14.119Z,15.13
2023-10-10T07:44:40.489Z,13.30
2023-10-10T07:47:07.013Z,13.38
2023-10-10T07:49:33.474Z,11.10
2023-10-10T07:51:59.819Z,11.25
2023-10-10T07:54:26.170Z,15.88
2023-10-10T07:56:52.511Z,10.57
2023-10-10T07:59:18.989Z,9.50
2023-10-10T08:01:45.476Z,12.88
2023-10-10T08:04:12.758Z,9.75
2023-10-10T08:06:40.519Z,8.70
2023-10-10T08:09:06.963Z,11.18
2023-10-10T08:11:33.349Z,12.30
2023-10-10T08:13:59.736Z,11.65
2023-10-10T08:16:26.126Z,9.68
2023-10-10T08:18:52.619Z,18.25
2023-10-10T08:21:19.395Z,10.70
2023-10-10T08:23:45.800Z,11.90
2023-10-10T08:26:12.642Z,11.52
2023-10-10T08:28:38.982Z,10.75
2023-10-10T08:31:05.412Z,10.65
2023-10-10T08:33:31.884Z,9.50
2023-10-10T08:35:58.352Z,8.93
2023-10-10T08:38:24.804Z,10.85
2023-10-10T08:40:53.520Z,11.15
2023-10-10T08:43:20.279Z,10.45
2023-10-10T08:45:47.604Z,13.45
2023-10-10T08:48:14.458Z,10.23
2023-10-10T08:50:42.289Z,11.73
2023-10-10T08:53:13.206Z,11.90
2023-10-10T08:55:40.453Z,9.93
2023-10-10T08:58:08.375Z,8.82
2023-10-10T09:00:36.460Z,8.10
2023-10-10T09:03:03.574Z,9.77
2023-10-10T09:05:30.205Z,9.45
2023-10-10T09:07:57.674Z,13.38
2023-10-10T09:10:27.223Z,6.88
2023-10-10T09:12:53.778Z,8.95
2023-10-10T09:15:20.657Z,9.00
2023-10-10T09:17:47.799Z,11.23
2023-10-10T09:20:26.809Z,12.40
2023-10-10T09:22:53.490Z,12.45
2023-10-10T09:25:20.786Z,10.50
2023-10-10T09:30:23.395Z,10.38
2023-10-10T09:32:49.835Z,9.77
2023-10-10T09:35:16.353Z,12.00
2023-10-10T09:37:43.026Z,10.05
2023-10-10T09:40:12.605Z,9.30
2023-10-10T09:42:45.456Z,9.02
2023-10-10T09:45:18.775Z,12.00
2023-10-10T09:47:45.393Z,9.23
2023-10-10T09:50:12.620Z,10.02
2023-10-10T09:52:39.400Z,6.80
2023-10-10T09:55:07.715Z,7.20
2023-10-10T09:57:40.157Z,10.50
2023-10-10T10:00:23.814Z,7.82
2023-10-10T10:02:53.690Z,9.50
2023-10-10T10:05:20.474Z,9.63
2023-10-10T10:08:11.926Z,8.07
2023-10-10T10:13:37.813Z,14.82
2023-10-10T10:16:17.099Z,9.25
2023-10-10T10:18:43.847Z,11.65
2023-10-10T10:21:12.209Z,8.63
2023-10-10T10:23:38.641Z,7.15
2023-10-10T10:26:05.806Z,9.77
2023-10-10T10:28:35.867Z,9.77
2023-10-10T10:31:13.003Z,9.07
2023-10-10T10:33:39.412Z,8.95
2023-10-10T10:36:06.690Z,6.85
2023-10-10T10:38:33.857Z,6.82
2023-10-10T10:41:01.396Z,9.43
2023-10-10T10:43:27.794Z,8.48
2023-10-10T10:45:54.150Z,7.57
2023-10-10T10:48:30.385Z,8.27
2023-10-10T10:51:16.096Z,6.40
2023-10-10T10:53:42.470Z,5.50
2023-10-10T10:56:08.805Z,7.13
2023-10-10T10:58:35.602Z,9.52
2023-10-10T11:01:04.491Z,8.25
2023-10-10T11:03:38.633Z,7.47
2023-10-10T11:06:07.165Z,7.20
2023-10-10T11:08:46.604Z,8.25
2023-10-10T11:11:25.372Z,7.75
2023-10-10T11:13:52.774Z,7.57
2023-10-10T11:16:19.934Z,7.60
2023-10-10T11:18:46.511Z,6.53
2023-10-10T11:21:13.006Z,6.93
2023-10-10T11:23:39.777Z,8.93
2023-10-10T11:26:06.382Z,7.63
2023-10-10T11:28:32.789Z,8.82
2023-10-10T11:31:03.309Z,9.85
2023-10-10T11:33:36.384Z,8.02
2023-10-10T11:36:21.679Z,8.50
2023-10-10T11:38:48.047Z,7.07
2023-10-10T11:41:14.559Z,8.35
2023-10-10T11:44:04.415Z,7.00
2023-10-10T11:46:31.171Z,11.73
2023-10-10T11:48:57.571Z,7.55
2023-10-10T11:51:34.053Z,5.53
2023-10-10T11:54:00.564Z,5.90
2023-10-10T11:56:26.920Z,7.18
2023-10-10T11:58:53.327Z,8.40
2023-10-10T12:01:19.790Z,7.05
2023-10-10T12:03:46.365Z,6.35
2023-10-10T12:06:14.793Z,9.55
2023-10-10T12:08:46.018Z,7.63
2023-10-10T12:11:12.493Z,6.90
2023-10-10T12:13:39.767Z,7.63
2023-10-10T12:16:07.291Z,7.13
2023-10-10T12:18:34.769Z,6.00
2023-10-10T12:21:04.209Z,6.57
2023-10-10T12:23:31.652Z,6.90
2023-10-10T12:25:59.141Z,9.95
2023-10-10T12:28:25.455Z,6.85
2023-10-10T12:30:51.806Z,7.65
2023-10-10T12:33:18.336Z,9.27
2023-10-10T12:35:45.033Z,7.15
2023-10-10T12:38:11.413Z,7.70
2023-10-10T12:40:37.770Z,7.43
2023-10-10T12:43:04.391Z,8.88
2023-10-10T12:45:30.946Z,9.75
2023-10-10T12:47:57.440Z,7.38
2023-10-10T12:50:23.920Z,6.53
2023-10-10T12:52:50.286Z,6.57
2023-10-10T12:55:16.669Z,7.60
2023-10-10T12:57:43.005Z,7.97
2023-10-10T13:00:09.961Z,7.20
2023-10-10T13:05:02.797Z,8.05
2023-10-10T13:07:29.175Z,8.52
2023-10-10T13:09:55.630Z,5.60
2023-10-10T13:12:21.980Z,7.40
2023-10-10T13:14:48.336Z,10.70
2023-10-10T13:17:14.783Z,6.28
2023-10-10T13:19:41.341Z,5.45
2023-10-10T13:22:07.682Z,7.82
2023-10-10T13:24:34.386Z,5.90
2023-10-10T13:27:00.780Z,12.50
2023-10-10T13:29:27.203Z,10.18
2023-10-10T13:31:53.566Z,8.65
2023-10-10T13:34:19.976Z,7.60
2023-10-10T13:36:46.359Z,8.25
2023-10-10T13:39:12.666Z,8.23
2023-10-10T13:41:39.118Z,7.13
2023-10-10T13:44:05.570Z,6.43
2023-10-10T13:46:33.671Z,7.53
2023-10-10T13:49:00.301Z,7.60
2023-10-10T13:51:26.659Z,6.57
2023-10-10T13:53:53.843Z,6.35
2023-10-10T13:56:21.455Z,5.47
2023-10-10T13:58:47.992Z,5.10
2023-10-10T14:01:15.379Z,7.05
2023-10-10T14:03:43.305Z,10.90
2023-10-10T14:06:09.903Z,7.72
2023-10-10T14:08:36.313Z,6.07
2023-10-10T14:11:02.722Z,8.43
2023-10-10T14:13:29.961Z,6.65
2023-10-10T14:15:57.188Z,7.15
2023-10-10T14:18:26.205Z,4.75
2023-10-10T14:20:53.133Z,9.30
2023-10-10T14:23:23.921Z,5.82
2023-10-10T14:25:50.273Z,7.85
2023-10-10T14:28:20.267Z,5.43
2023-10-10T14:30:47.138Z,5.28
2023-10-10T14:35:40.216Z,5.50
2023-10-10T14:38:06.772Z,6.20
2023-10-10T14:40:34.751Z,8.57
2023-10-10T14:43:01.418Z,7.55
2023-10-10T14:45:27.785Z,7.07
2023-10-10T14:47:54.147Z,4.53
2023-10-10T14:50:20.901Z,4.65
2023-10-10T14:52:47.418Z,5.50
2023-10-10T14:55:14.730Z,10.68
2023-10-10T14:57:41.058Z,11.75
2023-10-10T15:00:08.198Z,5.00
2023-10-10T15:02:34.660Z,7.25
2023-10-10T15:05:01.124Z,4.32
2023-10-10T15:07:27.448Z,7.97
2023-10-10T15:09:53.828Z,6.35
2023-10-10T15:12:20.147Z,5.03
2023-10-10T15:14:46.525Z,9.10
2023-10-10T15:17:13.129Z,5.18
2023-10-10T15:19:39.544Z,5.97
2023-10-10T15:22:05.985Z,7.10
2023-10-10T15:24:32.340Z,4.93
2023-10-10T15:26:59.376Z,4.82
2023-10-10T15:29:25.836Z,10.23
2023-10-10T15:31:52.264Z,5.35
2023-10-10T15:34:18.919Z,6.35
2023-10-10T15:36:45.650Z,5.35
2023-10-10T15:39:12.474Z,5.82
2023-10-10T15:41:39.837Z,7.97
2023-10-10T15:44:06.548Z,5.50
2023-10-10T15:46:34.775Z,10.88
2023-10-10T15:49:02.542Z,7.15
2023-10-10T15:51:30.255Z,8.52
2023-10-10T15:53:57.123Z,7.45
2023-10-10T15:56:23.666Z,7.38
2023-10-10T15:58:51.214Z,8.48
2023-10-10T16:01:20.496Z,10.82
2023-10-10T16:03:47.017Z,6.70
2023-10-10T16:06:13.562Z,9.02
2023-10-10T16:08:39.928Z,7.72
2023-10-10T16:11:06.551Z,8.13
2023-10-10T16:13:33.614Z,6.75
2023-10-10T16:18:26.538Z,8.45
2023-10-10T16:20:52.943Z,6.50
2023-10-10T16:23:19.513Z,6.68
2023-10-10T16:25:45.832Z,10.13
2023-10-10T16:28:12.352Z,13.10
2023-10-10T16:30:38.712Z,10.30
2023-10-10T16:33:05.563Z,9.68
2023-10-10T16:35:31.958Z,10.27
2023-10-10T16:37:58.442Z,9.95
2023-10-10T16:40:24.891Z,8.20
2023-10-10T16:42:51.199Z,7.78
2023-10-10T16:45:17.638Z,7.95
2023-10-10T16:47:44.057Z,7.10
2023-10-10T16:50:10.842Z,6.68
2023-10-10T16:52:39.231Z,8.68
2023-10-10T16:55:07.894Z,7.75
2023-10-10T16:57:34.384Z,6.35
2023-10-10T17:00:00.753Z,9.95
2023-10-10T17:02:27.212Z,5.28
2023-10-10T17:04:54.086Z,6.55
2023-10-10T17:12:37.137Z,5.85
2023-10-10T17:59:46.878Z,6.45
2023-10-10T18:02:13.394Z,5.90
2023-10-10T18:04:39.841Z,7.97
2023-10-10T18:07:06.357Z,5.57
2023-10-10T18:09:33.558Z,6.97
2023-10-10T18:14:26.523Z,8.77
2023-10-10T18:16:53.034Z,7.80
2023-10-10T18:19:19.977Z,9.32
2023-10-10T18:21:46.613Z,8.65
2023-10-10T18:24:15.054Z,8.93
2023-10-10T18:26:41.632Z,8.27
2023-10-10T18:29:08.902Z,8.73
2023-10-10T18:34:04.293Z,10.88
2023-10-10T18:36:31.129Z,8.55
2023-10-10T18:38:58.635Z,11.32
2023-10-10T18:41:25.316Z,11.02
2023-10-10T18:43:53.065Z,10.68
2023-10-10T18:46:19.569Z,7.50
2023-10-10T18:48:46.140Z,10.65
2023-10-10T18:51:13.424Z,12.10
2023-10-10T18:56:07.145Z,10.85
2023-10-10T18:58:33.480Z,12.13
2023-10-10T19:01:00.043Z,13.77
2023-10-10T19:03:26.585Z,13.43
2023-10-10T19:05:53.174Z,14.68
2023-10-10T19:08:20.350Z,12.75
2023-10-10T19:10:49.990Z,12.98
2023-10-10T19:13:16.564Z,15.25
2023-10-10T19:15:42.913Z,14.40
2023-10-10T19:18:09.360Z,12.75
2023-10-10T19:20:36.444Z,13.48
2023-10-10T19:23:03.096Z,12.32
2023-10-10T19:25:29.877Z,16.90
2023-10-10T19:27:58.400Z,11.45
2023-10-10T19:30:26.999Z,14.18
2023-10-10T19:32:54.259Z,12.85
2023-10-10T19:37:51.329Z,12.52
2023-10-10T19:40:18.890Z,9.32
2023-10-10T19:42:46.472Z,12.05
2023-10-10T19:45:24.658Z,11.50
2023-10-10T19:47:53.412Z,9.65
2023-10-10T19:50:20.401Z,9.30
2023-10-10T19:52:50.399Z,14.20
2023-10-10T19:55:22.044Z,12.90
2023-10-10T19:57:49.054Z,12.20
2023-10-10T20:00:16.340Z,16.83
2023-10-10T20:05:09.983Z,13.32
2023-10-10T20:07:37.024Z,12.50
2023-10-10T20:10:04.284Z,10.93
2023-10-10T20:12:31.038Z,13.30
2023-10-10T20:14:57.513Z,14.50
2023-10-10T20:17:23.857Z,11.27
2023-10-10T20:19:50.226Z,13.85
2023-10-10T20:22:16.666Z,15.75
2023-10-10T20:24:43.062Z,15.25
2023-10-10T20:27:09.437Z,11.68
2023-10-10T20:29:35.948Z,11.75
2023-10-10T20:32:02.293Z,14.65
2023-10-10T20:34:28.653Z,20.52
2023-10-10T20:36:54.986Z,15.10
2023-10-10T20:39:21.722Z,12.95
2023-10-10T20:41:48.077Z,12.63
2023-10-10T20:44:14.816Z,11.55
2023-10-10T20:46:41.849Z,14.25
2023-10-10T20:49:08.401Z,13.15
2023-10-10T20:51:35.418Z,11.00
2023-10-10T20:54:02.056Z,12.18
2023-10-10T20:56:28.432Z,13.00
2023-10-10T20:58:54.852Z,13.20
2023-10-10T21:01:21.292Z,13.23
2023-10-10T21:03:48.188Z,14.85
2023-10-10T21:06:15.266Z,15.55
2023-10-10T21:08:42.089Z,11.48
2023-10-10T21:11:09.852Z,13.50
2023-10-10T21:13:37.004Z,13.15
2023-10-10T21:16:14.223Z,13.05
2023-10-10T21:18:42.146Z,11.23
2023-10-10T21:21:08.556Z,16.80
2023-10-10T21:23:35.915Z,13.07
2023-10-10T21:28:28.761Z,12.38
2023-10-10T21:30:55.181Z,14.73
2023-10-10T21:33:21.848Z,11.05
2023-10-10T21:35:48.302Z,9.93
2023-10-10T21:38:14.689Z,13.05
2023-10-10T21:40:41.227Z,14.43
2023-10-10T21:43:07.930Z,13.52
2023-10-10T21:45:34.686Z,13.23
2023-10-10T21:48:01.263Z,13.07
2023-10-10T21:53:08.888Z,11.38
